Terminal Aerodrome Forecast
Issued by NWS

Home | Current Version | Previous Version | Text Only | Print | Product List | Glossary On
Versions: 1 2 3 4 5 6 7 8 9 10 11 12 13 14 15 16 17
000
FTUS43 KDVN 310500
TAFBRL
TAF
KBRL 310532Z 3106/0106 19005KT P6SM BKN080
     FM311200 22007KT P6SM BKN030
     FM311600 23008KT 6SM BR VCSH OVC020
     FM312000 22007KT 3SM -RASN BR OVC012
     FM010100 18005KT 2SM -SN BR OVC007=

USA.gov is the U.S. government's official web portal to all federal, state and local government web resources and services.